Time;durP1;ratioP1;P1;durP2;ratioP2;P2;SDS_P1;SDS_P2;PMS_P1;PMS_P2;Temp;Humidity;BMP_temperature;BMP_pressure;BME280_temperature;BME280_humidity;BME280_pressure;Samples;Min_cycle;Max_cycle;Signal;HPM_P1;HPM_P2
2023/01/09 08:53:30;;;;;;;;;;;;;;;6.59;100.00;98235.88;5134910;23;20007;-87
2023/01/09 08:55:56;;;;;;;;;;;;;;;6.63;100.00;98223.38;5056351;28;20339;-88
2023/01/09 08:58:21;;;;;;;;;;;;;;;6.61;100.00;98226.09;5055768;28;20294;-86
2023/01/09 09:00:46;;;;;;;;;;;;;;;6.66;100.00;98228.50;5055844;28;20371;-88
2023/01/09 09:03:11;;;;;;;;;;;;;;;6.68;100.00;98229.25;5037393;28;19916;-87
2023/01/09 09:05:37;;;;;;;;;;;;;;;6.71;100.00;98231.72;5055644;28;19952;-88
2023/01/09 09:08:02;;;;;;;;;;;;;;;6.67;100.00;98236.31;5054325;28;19960;-88
2023/01/09 09:10:28;;;;;;;;;;;;;;;6.69;100.00;98241.50;5037895;28;19921;-87
2023/01/09 09:12:55;;;;;;;;;;;;;;;6.70;100.00;98249.31;5037584;28;19916;-87
2023/01/09 09:15:30;;;;;;;;;;;;;;;6.69;100.00;98250.25;5055554;28;20291;-88
2023/01/09 09:17:59;;;;;;;;;;;;;;;6.73;100.00;98248.28;5055550;28;19913;-86
2023/01/09 09:20:26;;;;;;;;;;;;;;;6.76;100.00;98244.66;5055485;28;19916;-89
2023/01/09 09:22:52;;;;;;;;;;;;;;;6.83;100.00;98257.44;5054123;28;19917;-84
2023/01/09 09:25:18;;;;;;;;;;;;;;;6.80;100.00;98251.47;5055465;28;19970;-89
2023/01/09 09:27:43;;;;;;;;;;;;;;;6.76;100.00;98257.81;5055218;28;19935;-90
2023/01/09 09:30:09;;;;;;;;;;;;;;;6.80;100.00;98254.13;5037528;28;19924;-89
2023/01/09 09:32:37;;;;;;;;;;;;;;;6.81;100.00;98253.16;5055038;28;19924;-89
2023/01/09 09:35:02;;;;;;;;;;;;;;;6.81;100.00;98245.25;5055243;28;20332;-88
2023/01/09 09:37:28;;;;;;;;;;;;;;;6.88;100.00;98249.28;5035923;28;20008;-90
2023/01/09 09:39:53;;;;;;;;;;;;;;;6.86;100.00;98251.13;5037299;28;20429;-87
2023/01/09 09:45:43;;;;;;;;;;;;;;;6.93;100.00;98244.63;5039149;28;19942;-87
2023/01/09 09:48:37;;;;;;;;;;;;;;;;;;;;;
2023/01/09 09:51:21;;;;;;;;;;;;;;;6.95;100.00;98245.41;5055071;28;19931;-89
2023/01/09 09:53:53;;;;;;;;;;;;;;;6.94;100.00;98237.56;5054701;28;19921;-88
2023/01/09 09:56:26;;;;;;;;;;;;;;;6.94;100.00;98248.97;5036838;28;20011;-87
2023/01/09 09:59:03;;;;;;;;;;;;;;;6.96;100.00;98248.91;5036603;28;19913;-88
2023/01/09 10:01:49;;;;;;;;;;;;;;;6.98;100.00;98254.94;5054643;28;19959;-87
2023/01/09 10:04:17;;;;;;;;;;;;;;;7.03;100.00;98264.28;5036757;28;19998;-87
2023/01/09 10:06:44;;;;;;;;;;;;;;;7.05;100.00;98266.81;5035315;28;19916;-87
2023/01/09 10:09:27;;;;;;;;;;;;;;;7.03;100.00;98264.28;5054413;28;19951;-87
2023/01/09 10:11:55;;;;;;;;;;;;;;;7.04;100.00;98260.72;5054265;28;19917;-87
2023/01/09 10:14:23;;;;;;;;;;;;;;;7.13;100.00;98261.16;5053785;28;20390;-89
2023/01/09 10:17:06;;;;;;;;;;;;;;;7.14;100.00;98260.25;5054567;28;19921;-89
2023/01/09 10:19:50;;;;;;;;;;;;;;;7.13;100.00;98258.53;5036415;28;19959;-88
2023/01/09 10:22:25;;;;;;;;;;;;;;;7.14;100.00;98255.81;5053268;28;19912;-86
2023/01/09 10:25:02;;;;;;;;;;;;;;;7.12;100.00;98268.22;5036294;28;19917;-85
2023/01/09 10:27:51;;;;;;;;;;;;;;;7.12;100.00;98270.00;5054207;28;19920;-88
2023/01/09 10:30:37;;;;;;;;;;;;;;;7.15;100.00;98275.09;5008363;28;20036;-87
2023/01/09 10:33:10;;;;;;;;;;;;;;;7.17;100.00;98276.72;5005750;28;19999;-86
2023/01/09 10:35:56;;;;;;;;;;;;;;;7.17;100.00;98275.88;5053871;28;19917;-86
2023/01/09 10:38:24;;;;;;;;;;;;;;;7.17;100.00;98275.88;5034661;28;19954;-86
2023/01/09 10:40:56;;;;;;;;;;;;;;;7.17;100.00;98271.47;5053767;28;20330;-86
2023/01/09 10:43:22;;;;;;;;;;;;;;;7.16;100.00;98280.28;5053909;28;19916;-86
2023/01/09 10:45:53;;;;;;;;;;;;;;;7.19;100.00;98268.75;5035840;28;20454;-86
2023/01/09 10:48:24;;;;;;;;;;;;;;;7.22;100.00;98274.69;5036083;28;19927;-85
2023/01/09 10:50:51;;;;;;;;;;;;;;;7.21;100.00;98273.00;5053693;28;19923;-85
2023/01/09 10:53:20;;;;;;;;;;;;;;;7.21;100.00;98278.28;5030986;28;19921;-86
2023/01/09 10:55:53;;;;;;;;;;;;;;;7.24;100.00;98278.13;5032332;28;19917;-86
2023/01/09 10:58:22;;;;;;;;;;;;;;;7.23;100.00;98276.41;5032335;28;19925;-87
2023/01/09 11:01:07;;;;;;;;;;;;;;;;;;;;;
2023/01/09 11:03:33;;;;;;;;;;;;;;;7.24;100.00;98267.56;5033457;28;19917;-86
2023/01/09 11:06:02;;;;;;;;;;;;;;;7.23;100.00;98276.41;5033563;28;19999;-85
2023/01/09 11:08:29;;;;;;;;;;;;;;;7.26;100.00;98285.94;5031025;28;19924;-87
2023/01/09 11:10:56;;;;;;;;;;;;;;;7.28;100.00;98278.78;5033444;28;19968;-86
2023/01/09 11:13:33;;;;;;;;;;;;;;;7.30;100.00;98282.19;5033477;28;19917;-86
2023/01/09 11:16:08;;;;;;;;;;;;;;;7.30;100.00;98287.47;5033400;28;19925;-86
2023/01/09 11:18:36;;;;;;;;;;;;;;;7.39;100.00;98284.34;5032231;28;19917;-87
2023/01/09 11:21:12;;;;;;;;;;;;;;;7.37;100.00;98283.56;5033287;28;20288;-86
2023/01/09 11:23:38;;;;;;;;;;;;;;;7.36;100.00;98289.78;5033412;28;19917;-86
2023/01/09 11:26:04;;;;;;;;;;;;;;;7.35;100.00;98293.31;5032958;28;20349;-86
2023/01/09 11:28:30;;;;;;;;;;;;;;;7.37;100.00;98299.38;5032042;28;20335;-87
2023/01/09 11:31:00;;;;;;;;;;;;;;;7.35;100.00;98298.59;5033221;28;19924;-86
2023/01/09 11:33:27;;;;;;;;;;;;;;;7.40;100.00;98304.50;5033215;28;19917;-86
2023/01/09 11:35:58;;;;;;;;;;;;;;;7.37;100.00;98309.94;5033309;28;19917;-86
2023/01/09 11:38:23;;;;;;;;;;;;;;;7.38;100.00;98316.03;5031963;28;19913;-85
2023/01/09 11:40:48;;;;;;;;;;;;;;;7.40;100.00;98312.41;5031794;28;19917;-86
2023/01/09 11:43:17;;;;;;;;;;;;;;;7.41;100.00;98310.59;5031838;28;19914;-86
2023/01/09 11:45:45;;;;;;;;;;;;;;;7.47;100.00;98320.84;5032954;28;19924;-88
2023/01/09 11:48:29;;;;;;;;;;;;;;;7.43;100.00;98314.84;5032165;28;19917;-87
2023/01/09 11:50:56;;;;;;;;;;;;;;;7.45;100.00;98323.53;5031958;28;20348;-86
2023/01/09 11:53:21;;;;;;;;;;;;;;;7.51;100.00;98319.72;5041066;28;19927;-86
2023/01/09 11:56:00;;;;;;;;;;;;;;;7.51;100.00;98318.88;5052535;28;20011;-92
2023/01/09 11:58:27;;;;;;;;;;;;;;;7.50;100.00;98309.25;5035123;28;20376;-86
2023/01/09 12:00:58;;;;;;;;;;;;;;;7.52;100.00;98312.69;5052863;28;19970;-87
2023/01/09 12:03:42;;;;;;;;;;;;;;;7.51;100.00;98319.72;5052862;28;20375;-86
2023/01/09 12:06:26;;;;;;;;;;;;;;;7.52;100.00;98312.69;5052234;28;19967;-87
2023/01/09 12:08:51;;;;;;;;;;;;;;;7.51;100.00;98309.16;5034882;28;19921;-88
2023/01/09 12:11:19;;;;;;;;;;;;;;;7.50;100.00;98315.41;5052718;28;19917;-88
2023/01/09 12:13:45;;;;;;;;;;;;;;;7.51;100.00;98316.25;5052742;28;20032;-85
2023/01/09 12:16:20;;;;;;;;;;;;;;;7.51;100.00;98319.72;5052753;28;19948;-88
2023/01/09 12:18:48;;;;;;;;;;;;;;;7.52;100.00;98310.88;5034784;28;19964;-89
2023/01/09 12:21:19;;;;;;;;;;;;;;;7.55;100.00;98302.81;5033490;28;19920;-86
2023/01/09 12:24:03;;;;;;;;;;;;;;;7.56;100.00;98320.34;5034779;28;19917;-89
2023/01/09 12:26:43;;;;;;;;;;;;;;;7.59;100.00;98317.50;5034784;28;19925;-86
2023/01/09 12:29:17;;;;;;;;;;;;;;;7.58;100.00;98322.91;5034624;28;19920;-87
2023/01/09 12:31:56;;;;;;;;;;;;;;;7.58;100.00;98322.91;5034513;28;19924;-88
2023/01/09 12:34:22;;;;;;;;;;;;;;;7.58;100.00;98312.34;5034749;28;19917;-88
2023/01/09 12:36:54;;;;;;;;;;;;;;;7.58;100.00;98317.63;5051370;28;19923;-87
2023/01/09 12:39:22;;;;;;;;;;;;;;;7.60;100.00;98313.94;5037436;28;19952;-87
2023/01/09 12:41:51;;;;;;;;;;;;;;;7.60;100.00;98311.31;5056192;28;19916;-86
2023/01/09 12:44:22;;;;;;;;;;;;;;;7.63;100.00;98307.69;5038353;28;19924;-87
2023/01/09 12:47:09;;;;;;;;;;;;;;;7.67;100.00;98316.25;5038266;28;20367;-87
2023/01/09 12:49:36;;;;;;;;;;;;;;;7.65;100.00;98324.25;5038351;28;19952;-87
2023/01/09 12:52:13;;;;;;;;;;;;;;;7.65;100.00;98321.63;5036581;28;20379;-87
2023/01/09 12:54:58;;;;;;;;;;;;;;;7.67;100.00;98330.28;5055789;28;20414;-87
2023/01/09 12:57:27;;;;;;;;;;;;;;;7.70;100.00;98319.56;5037599;28;19917;-87
2023/01/09 13:00:04;;;;;;;;;;;;;;;7.70;100.00;98327.47;5055860;28;19917;-87
2023/01/09 13:02:36;;;;;;;;;;;;;;;7.69;100.00;98327.56;5037860;28;19917;-87
2023/01/09 13:05:05;;;;;;;;;;;;;;;7.70;100.00;98318.72;5055578;28;19920;-88
2023/01/09 13:07:50;;;;;;;;;;;;;;;7.69;100.00;98315.25;5036471;28;20371;-88
2023/01/09 13:10:29;;;;;;;;;;;;;;;7.72;100.00;98320.38;5037761;28;19967;-88
2023/01/09 13:12:57;;;;;;;;;;;;;;;7.72;100.00;98315.09;5055583;28;20386;-87
2023/01/09 13:15:32;;;;;;;;;;;;;;;7.75;100.00;98320.16;5055492;28;19963;-86
2023/01/09 13:18:05;;;;;;;;;;;;;;;7.72;100.00;98320.38;5037572;28;19917;-87
2023/01/09 13:20:50;;;;;;;;;;;;;;;7.73;100.00;98322.03;5055524;28;20031;-88
2023/01/09 13:23:31;;;;;;;;;;;;;;;7.80;100.00;98330.47;5054142;28;20012;-88
2023/01/09 13:25:58;;;;;;;;;;;;;;;7.79;100.00;98331.41;5037549;28;19956;-85
2023/01/09 13:28:26;;;;;;;;;;;;;;;7.80;100.00;98343.66;5055455;28;19917;-88
2023/01/09 13:31:18;;;;;;;;;;;;;;;7.82;100.00;98336.53;5037516;28;19917;-88
2023/01/09 13:33:47;;;;;;;;;;;;;;;7.86;100.00;98342.47;5037215;28;19962;-89
2023/01/09 13:36:41;;;;;;;;;;;;;;;7.84;100.00;98342.56;5035969;28;20383;-87
2023/01/09 13:39:18;;;;;;;;;;;;;;;7.84;100.00;98342.56;5053018;28;20273;-88
2023/01/09 13:44:55;;;;;;;;;;;;;;;7.86;100.00;98338.03;5055040;28;20385;-88
2023/01/09 13:50:15;;;;;;;;;;;;;;;7.88;100.00;98337.97;5054661;28;20019;-88
2023/01/09 13:52:41;;;;;;;;;;;;;;;7.88;100.00;98338.84;5053464;28;19927;-89
2023/01/09 13:55:18;;;;;;;;;;;;;;;7.91;100.00;98353.63;5054942;28;20368;-88
2023/01/09 13:58:04;;;;;;;;;;;;;;;7.91;100.00;98343.06;5054776;28;19921;-88
2023/01/09 14:00:40;;;;;;;;;;;;;;;7.91;100.00;98346.53;5036248;28;20014;-88
2023/01/09 14:03:17;;;;;;;;;;;;;;;7.91;100.00;98356.25;5054442;28;19940;-88
2023/01/09 14:05:42;;;;;;;;;;;;;;;7.94;100.00;98350.81;5036861;28;20380;-88
2023/01/09 14:08:12;;;;;;;;;;;;;;;7.96;100.00;98359.47;5053091;28;19983;-87
2023/01/09 14:10:58;;;;;;;;;;;;;;;;;;;;;
2023/01/09 14:13:44;;;;;;;;;;;;;;;7.91;100.00;98351.81;5054290;28;20465;-88
2023/01/09 14:16:13;;;;;;;;;;;;;;;7.96;100.00;98351.56;5035355;28;19982;-88
2023/01/09 14:18:45;;;;;;;;;;;;;;;7.96;100.00;98364.75;5036402;28;20104;-87
2023/01/09 14:21:36;;;;;;;;;;;;;;;7.97;100.00;98361.19;5035358;28;19935;-88
2023/01/09 14:24:12;;;;;;;;;;;;;;;7.96;100.00;98380.59;5054088;28;19924;-88
2023/01/09 14:26:44;;;;;;;;;;;;;;;7.99;100.00;98377.78;5036350;28;20019;-89
2023/01/09 14:29:31;;;;;;;;;;;;;;;8.00;100.00;98397.97;5036197;28;19932;-83
2023/01/09 14:32:25;;;;;;;;;;;;;;;8.01;100.00;98420.78;5054013;28;19956;-88
2023/01/09 14:34:56;;;;;;;;;;;;;;;8.04;100.00;98438.22;5054356;28;19917;-88
2023/01/09 14:37:26;;;;;;;;;;;;;;;8.04;100.00;98425.91;5035240;28;19920;-87
2023/01/09 14:39:54;;;;;;;;;;;;;;;8.05;100.00;98443.41;5036116;28;19917;-88
2023/01/09 14:42:33;;;;;;;;;;;;;;;8.05;100.00;98443.41;5037215;28;23937;-85
2023/01/09 14:45:20;;;;;;;;;;;;;;;8.05;100.00;98453.13;5053678;28;19921;-88
2023/01/09 14:47:49;;;;;;;;;;;;;;;8.06;100.00;98460.06;5035974;28;19940;-88
2023/01/09 14:50:24;;;;;;;;;;;;;;;8.07;100.00;98467.06;5035918;28;20402;-88
2023/01/09 14:52:52;;;;;;;;;;;;;;;8.05;100.00;98477.69;5034385;28;19920;-88
2023/01/09 14:55:56;;;;;;;;;;;;;;;8.08;100.00;98489.88;5035560;28;19932;-90
2023/01/09 14:58:30;;;;;;;;;;;;;;;8.08;100.00;98503.06;4992044;28;19924;-89
2023/01/09 15:01:03;;;;;;;;;;;;;;;8.17;100.00;98495.53;4991742;28;20023;-87
2023/01/09 15:03:49;;;;;;;;;;;;;;;8.20;100.00;98513.00;5051383;28;19917;-85
2023/01/09 15:06:29;;;;;;;;;;;;;;;8.19;100.00;98520.03;5052014;28;19917;-91
2023/01/09 15:08:59;;;;;;;;;;;;;;;8.21;100.00;98522.59;5053441;28;19917;-86
2023/01/09 15:11:25;;;;;;;;;;;;;;;8.19;100.00;98520.03;5042762;28;20444;-90
2023/01/09 15:13:52;;;;;;;;;;;;;;;8.20;100.00;98528.81;5020549;28;19927;-89
2023/01/09 15:16:18;;;;;;;;;;;;;;;8.21;100.00;98533.16;5023474;28;19968;-89
2023/01/09 15:18:45;;;;;;;;;;;;;;;8.20;100.00;98534.09;5039821;28;19924;-84
2023/01/09 15:21:18;;;;;;;;;;;;;;;8.23;100.00;98547.09;5039569;28;20288;-88
2023/01/09 15:23:44;;;;;;;;;;;;;;;8.21;100.00;98548.13;5024308;28;19925;-88
2023/01/09 15:26:28;;;;;;;;;;;;;;;8.21;100.00;98554.25;5015532;28;19917;-86
2023/01/09 15:29:03;;;;;;;;;;;;;;;8.21;100.00;98556.06;5033267;28;20392;-88
2023/01/09 15:31:29;;;;;;;;;;;;;;;8.22;100.00;98560.38;5038261;28;19925;-84
2023/01/09 15:34:03;;;;;;;;;;;;;;;8.22;100.00;98571.81;5039188;28;20019;-88
2023/01/09 15:36:39;;;;;;;;;;;;;;;8.23;100.00;98570.00;5024495;28;19972;-87
2023/01/09 15:39:08;;;;;;;;;;;;;;;8.24;100.00;98574.38;5025697;28;19940;-87
2023/01/09 15:44:19;;;;;;;;;;;;;;;8.25;100.00;98595.41;5044452;28;19942;-87
2023/01/09 15:46:45;;;;;;;;;;;;;;;8.24;100.00;98598.94;5053139;28;19959;-88
2023/01/09 15:49:11;;;;;;;;;;;;;;;8.25;100.00;98603.31;5035308;28;19990;-86
2023/01/09 15:51:40;;;;;;;;;;;;;;;8.26;100.00;98607.63;5051924;28;20574;-84
2023/01/09 15:54:12;;;;;;;;;;;;;;;8.26;100.00;98614.72;5031090;28;19921;-87
2023/01/09 15:56:38;;;;;;;;;;;;;;;8.24;100.00;98617.44;5024944;28;19928;-85
2023/01/09 15:59:20;;;;;;;;;;;;;;;8.25;100.00;98618.28;5013187;28;19917;-87
2023/01/09 16:04:51;;;;;;;;;;;;;;;8.27;100.00;98630.47;5005143;28;19940;-88
2023/01/09 16:07:28;;;;;;;;;;;;;;;8.28;100.00;98641.88;5012012;28;20008;-88
2023/01/09 16:09:53;;;;;;;;;;;;;;;8.27;100.00;98632.25;5033971;28;19944;-85
2023/01/09 16:12:21;;;;;;;;;;;;;;;8.28;100.00;98639.22;5030373;28;19921;-90
2023/01/09 16:14:51;;;;;;;;;;;;;;;8.28;100.00;98649.78;5034084;28;19921;-85
2023/01/09 16:17:17;;;;;;;;;;;;;;;8.28;100.00;98660.34;5034474;28;19971;-89
2023/01/09 16:19:47;;;;;;;;;;;;;;;8.27;100.00;98664.78;5039537;28;19921;-85
2023/01/09 16:22:31;;;;;;;;;;;;;;;8.29;100.00;98667.34;5053369;28;20011;-92
2023/01/09 16:24:59;;;;;;;;;;;;;;;8.30;100.00;98661.13;5054484;28;20391;-89
2023/01/09 16:27:27;;;;;;;;;;;;;;;8.29;100.00;98662.06;5054542;28;20003;-91
2023/01/09 16:30:06;;;;;;;;;;;;;;;8.30;100.00;98669.91;5037799;28;19916;-90
2023/01/09 16:32:31;;;;;;;;;;;;;;;8.30;100.00;98669.06;5048219;28;20399;-86
2023/01/09 16:34:59;;;;;;;;;;;;;;;8.31;100.00;98678.66;5034416;28;19925;-86
2023/01/09 16:37:25;;;;;;;;;;;;;;;8.31;100.00;98676.91;5028873;28;20311;-86
2023/01/09 16:40:09;;;;;;;;;;;;;;;8.32;100.00;98672.47;5037471;28;19921;-85
2023/01/09 16:45:24;;;;;;;;;;;;;;;8.33;100.00;98695.28;5017350;28;19932;-86
2023/01/09 16:47:50;;;;;;;;;;;;;;;8.33;100.00;98695.28;5020469;28;19917;-86
2023/01/09 16:50:15;;;;;;;;;;;;;;;8.32;100.00;98691.78;5036129;28;19963;-86
2023/01/09 16:52:40;;;;;;;;;;;;;;;8.33;100.00;98690.84;5036695;28;19924;-86
2023/01/09 16:55:06;;;;;;;;;;;;;;;8.33;100.00;98697.94;5046880;28;19921;-87
2023/01/09 16:57:33;;;;;;;;;;;;;;;8.34;100.00;98694.34;5018167;28;20356;-87
2023/01/09 16:59:59;;;;;;;;;;;;;;;8.33;100.00;98708.50;5040627;28;20402;-87
2023/01/09 17:02:26;;;;;;;;;;;;;;;8.33;100.00;98713.75;5050856;28;19917;-88
2023/01/09 17:04:54;;;;;;;;;;;;;;;8.34;100.00;98718.97;5038427;28;19924;-86
2023/01/09 17:07:19;;;;;;;;;;;;;;;8.35;100.00;98719.81;5017055;28;19976;-88
2023/01/09 17:09:45;;;;;;;;;;;;;;;8.35;100.00;98719.81;5042973;28;19925;-86
2023/01/09 17:12:18;;;;;;;;;;;;;;;8.36;100.00;98727.66;5055603;28;19917;-88
2023/01/09 17:14:44;;;;;;;;;;;;;;;8.37;100.00;98733.78;5036321;28;19971;-87
2023/01/09 17:17:11;;;;;;;;;;;;;;;8.36;100.00;98730.28;5018128;28;19936;-87
2023/01/09 17:19:39;;;;;;;;;;;;;;;8.37;100.00;98728.50;5020096;23;19926;-89
2023/01/09 17:22:23;;;;;;;;;;;;;;;8.37;100.00;98739.06;5013886;28;20324;-90
2023/01/09 17:30:37;;;;;;;;;;;;;;;8.37;100.00;98758.38;5015507;28;20332;-89
2023/01/09 17:33:21;;;;;;;;;;;;;;;8.39;100.00;98752.19;5013463;28;20274;-93
2023/01/09 17:35:46;;;;;;;;;;;;;;;8.38;100.00;98761.91;5006772;28;20281;-88
2023/01/09 17:38:13;;;;;;;;;;;;;;;8.41;100.00;98766.16;5014433;28;19917;-88
2023/01/09 17:40:38;;;;;;;;;;;;;;;8.40;100.00;98772.38;5015523;28;19918;-89
2023/01/09 17:43:03;;;;;;;;;;;;;;;8.41;100.00;98772.31;5015399;28;19924;-89
2023/01/09 17:45:29;;;;;;;;;;;;;;;8.41;100.00;98781.97;5015233;28;20001;-89
2023/01/09 17:47:54;;;;;;;;;;;;;;;8.42;100.00;98781.91;5015510;28;19924;-89
2023/01/09 17:50:20;;;;;;;;;;;;;;;8.42;100.00;98789.81;5013785;28;19992;-88
2023/01/09 17:52:46;;;;;;;;;;;;;;;8.42;100.00;98792.47;5014267;28;19972;-88
2023/01/09 17:55:11;;;;;;;;;;;;;;;8.43;100.00;98791.56;5013913;28;20384;-89
2023/01/09 17:57:36;;;;;;;;;;;;;;;8.44;100.00;98798.59;5013741;28;20017;-88
2023/01/09 18:00:04;;;;;;;;;;;;;;;8.45;100.00;98800.28;5015201;28;20373;-89
2023/01/09 18:05:05;;;;;;;;;;;;;;;8.47;100.00;98806.34;3339879;26;19929;-87
2023/01/09 18:07:47;;;;;;;;;;;;;;;8.47;100.00;98809.00;5000544;28;19971;-87
2023/01/09 18:13:41;;;;;;;;;;;;;;;8.47;100.00;98822.19;4960396;28;20346;-89
2023/01/09 18:16:13;;;;;;;;;;;;;;;8.47;100.00;98824.84;5007853;28;20024;-88
2023/01/09 18:18:39;;;;;;;;;;;;;;;8.48;100.00;98826.53;5014702;28;20403;-90
2023/01/09 18:21:28;;;;;;;;;;;;;;;8.48;100.00;98818.59;5014621;28;19921;-92
2023/01/09 18:26:26;;;;;;;;;;;;;;;8.50;100.00;98829.09;5152097;23;19925;-88
2023/01/09 18:31:55;;;;;;;;;;;;;;;8.49;100.00;98836.16;5063930;23;20027;-87
2023/01/09 18:34:20;;;;;;;;;;;;;;;8.50;100.00;98835.25;5054393;28;20358;-87
2023/01/09 18:36:46;;;;;;;;;;;;;;;8.52;100.00;98836.00;5072009;28;20391;-88
2023/01/09 18:39:11;;;;;;;;;;;;;;;8.53;100.00;98834.22;5073945;28;19920;-87
2023/01/09 18:41:36;;;;;;;;;;;;;;;8.52;100.00;98848.34;5073926;28;19959;-87
2023/01/09 18:44:02;;;;;;;;;;;;;;;8.52;100.00;98859.78;5073916;28;19917;-86
2023/01/09 18:46:30;;;;;;;;;;;;;;;8.53;100.00;98856.19;5072863;28;19968;-87
2023/01/09 18:49:00;;;;;;;;;;;;;;;8.56;100.00;98865.75;5073305;28;19920;-87
2023/01/09 18:51:26;;;;;;;;;;;;;;;8.58;100.00;98870.97;5054446;28;20367;-87
2023/01/09 18:53:52;;;;;;;;;;;;;;;8.55;100.00;98879.88;5060830;28;19920;-87
2023/01/09 18:56:18;;;;;;;;;;;;;;;8.58;100.00;98886.78;5073696;28;20424;-87
2023/01/09 18:58:44;;;;;;;;;;;;;;;8.57;100.00;98893.00;5073543;28;20007;-88
2023/01/09 19:01:09;;;;;;;;;;;;;;;8.58;100.00;98897.34;5063518;28;20006;-88
2023/01/09 19:03:34;;;;;;;;;;;;;;;8.58;100.00;98900.00;5052052;28;20371;-88
2023/01/09 19:06:00;;;;;;;;;;;;;;;8.59;100.00;98899.09;5059293;28;19929;-87
2023/01/09 19:08:29;;;;;;;;;;;;;;;8.58;100.00;98907.91;5072212;28;19970;-87
2023/01/09 19:10:54;;;;;;;;;;;;;;;8.58;100.00;98919.34;5066984;28;20012;-88
2023/01/09 19:13:20;;;;;;;;;;;;;;;8.59;100.00;98928.13;5038316;28;20395;-88
2023/01/09 19:15:45;;;;;;;;;;;;;;;8.58;100.00;98932.53;5053322;28;20372;-87
2023/01/09 19:18:11;;;;;;;;;;;;;;;8.59;100.00;98942.19;5053186;28;20007;-89
2023/01/09 19:20:37;;;;;;;;;;;;;;;8.57;100.00;98941.41;5053218;28;20000;-88
2023/01/09 19:23:02;;;;;;;;;;;;;;;8.58;100.00;98952.81;5052339;28;19971;-88
2023/01/09 19:25:27;;;;;;;;;;;;;;;8.59;100.00;98949.25;5053326;28;19916;-89
2023/01/09 19:27:54;;;;;;;;;;;;;;;8.59;100.00;98949.25;5035660;28;19972;-88
2023/01/09 19:30:20;;;;;;;;;;;;;;;8.60;100.00;98953.59;5038249;28;19956;-87
2023/01/09 19:32:46;;;;;;;;;;;;;;;8.61;100.00;98952.66;5051591;28;19948;-88
2023/01/09 19:35:11;;;;;;;;;;;;;;;8.60;100.00;98964.16;5053203;28;19916;-89
2023/01/09 19:37:36;;;;;;;;;;;;;;;8.60;100.00;98967.66;5065878;28;19956;-88
2023/01/09 19:40:02;;;;;;;;;;;;;;;8.62;100.00;98964.94;5055377;28;19947;-88
2023/01/09 19:42:27;;;;;;;;;;;;;;;8.62;100.00;98980.78;5065083;28;19967;-88
2023/01/09 19:44:52;;;;;;;;;;;;;;;8.61;100.00;98979.06;5056358;28;19959;-87
2023/01/09 19:47:20;;;;;;;;;;;;;;;8.62;100.00;98986.06;5055214;23;19968;-88
2023/01/09 19:49:45;;;;;;;;;;;;;;;8.61;100.00;98979.91;5029307;28;19921;-88
2023/01/09 19:52:16;;;;;;;;;;;;;;;8.62;100.00;98986.94;5023204;28;19948;-89
2023/01/09 19:54:41;;;;;;;;;;;;;;;8.63;100.00;98987.78;5055234;28;19948;-86
2023/01/09 19:57:07;;;;;;;;;;;;;;;8.63;100.00;98995.69;5035835;28;19955;-87
2023/01/09 19:59:32;;;;;;;;;;;;;;;8.64;100.00;99000.06;5035846;28;19917;-87
2023/01/09 20:01:57;;;;;;;;;;;;;;;8.65;100.00;98996.50;5037024;28;20462;-88
2023/01/09 20:04:25;;;;;;;;;;;;;;;8.62;100.00;99000.13;5039567;28;20015;-88
2023/01/09 20:06:52;;;;;;;;;;;;;;;8.52;100.00;99012.03;5034970;28;20372;-87
2023/01/09 20:09:20;;;;;;;;;;;;;;;7.41;100.00;99017.78;5056899;28;19916;-88
2023/01/09 20:11:45;;;;;;;;;;;;;;;6.74;100.00;99024.00;5056720;28;19924;-87
2023/01/09 20:14:13;;;;;;;;;;;;;;;6.54;100.00;99019.50;5056804;28;19963;-87
2023/01/09 20:16:39;;;;;;;;;;;;;;;6.31;100.00;99021.25;5040874;28;20278;-87
2023/01/09 20:19:06;;;;;;;;;;;;;;;6.08;100.00;99026.50;5042208;28;20217;-87
2023/01/09 20:21:32;;;;;;;;;;;;;;;5.99;100.00;99046.13;5055220;28;19931;-86
2023/01/09 20:23:59;;;;;;;;;;;;;;;5.91;100.00;99045.50;5039829;28;19925;-86
2023/01/09 20:26:24;;;;;;;;;;;;;;;5.89;100.00;99047.31;5041704;28;19917;-86
2023/01/09 20:28:50;;;;;;;;;;;;;;;5.75;100.00;99051.28;5056424;28;19963;-86
2023/01/09 20:31:16;;;;;;;;;;;;;;;5.73;100.00;99053.13;5038550;28;19921;-87
2023/01/09 20:33:42;;;;;;;;;;;;;;;5.70;100.00;99057.63;5056198;28;19924;-87
2023/01/09 20:36:08;;;;;;;;;;;;;;;5.62;100.00;99060.53;5047860;28;19917;-87
2023/01/09 20:38:35;;;;;;;;;;;;;;;5.54;100.00;99073.06;5034129;28;20008;-87
2023/01/09 20:41:11;;;;;;;;;;;;;;;5.52;100.00;99059.09;5036440;28;19925;-86
2023/01/09 20:43:37;;;;;;;;;;;;;;;5.41;100.00;99072.63;5034856;28;19917;-87
2023/01/09 20:46:03;;;;;;;;;;;;;;;5.41;100.00;99083.13;5034954;28;19917;-87
2023/01/09 20:48:31;;;;;;;;;;;;;;;5.33;100.00;99077.25;5036073;28;19921;-87
2023/01/09 20:51:02;;;;;;;;;;;;;;;5.35;100.00;99083.31;5013961;28;19918;-87
2023/01/09 20:53:27;;;;;;;;;;;;;;;5.27;100.00;99086.19;5012893;28;19921;-88
2023/01/09 20:55:57;;;;;;;;;;;;;;;5.18;100.00;99089.97;4997561;28;20016;-87
2023/01/09 20:58:22;;;;;;;;;;;;;;;5.17;100.00;99093.53;5013576;28;19949;-87
2023/01/09 21:00:48;;;;;;;;;;;;;;;5.22;100.00;99098.63;4997140;28;19980;-87
2023/01/09 21:03:15;;;;;;;;;;;;;;;5.05;100.00;99096.53;4997603;28;19924;-87
2023/01/09 21:05:40;;;;;;;;;;;;;;;5.12;100.00;99105.06;5013847;28;20024;-87
2023/01/09 21:08:06;;;;;;;;;;;;;;;5.09;100.00;99108.66;4996384;28;20105;-86
2023/01/09 21:10:31;;;;;;;;;;;;;;;5.01;100.00;99122.03;4997453;28;20008;-86
2023/01/09 21:12:56;;;;;;;;;;;;;;;4.98;100.00;99124.75;5008943;28;20463;-86
2023/01/09 21:15:23;;;;;;;;;;;;;;;4.95;100.00;99119.59;5023681;28;19990;-87
2023/01/09 21:17:48;;;;;;;;;;;;;;;4.99;100.00;99120.34;5035683;28;19917;-87
2023/01/09 21:20:14;;;;;;;;;;;;;;;4.94;100.00;99124.88;5034832;28;19983;-86
2023/01/09 21:23:09;;;;;;;;;;;;;;;;;;;;;
2023/01/09 21:25:48;;;;;;;;;;;;;;;;;;;;;
2023/01/09 21:28:18;;;;;;;;;;;;;;;4.85;100.00;99129.50;5035613;28;19917;-88
2023/01/09 21:30:48;;;;;;;;;;;;;;;4.86;100.00;99127.72;5035543;28;19920;-89
2023/01/09 21:33:13;;;;;;;;;;;;;;;4.77;100.00;99131.50;5034199;28;20372;-85
2023/01/09 21:35:44;;;;;;;;;;;;;;;4.80;100.00;99136.63;5049229;28;19939;-87
2023/01/09 21:38:12;;;;;;;;;;;;;;;4.72;100.00;99141.25;5036210;28;20354;-88
2023/01/09 21:40:47;;;;;;;;;;;;;;;;;;;;;
2023/01/09 21:49:10;;;;;;;;;;;;;;;;;;;;;
2023/01/09 21:51:56;;;;;;;;;;;;;;;4.66;100.00;99165.06;5049481;28;19921;-89
2023/01/09 21:54:26;;;;;;;;;;;;;;;4.69;100.00;99180.72;5053477;28;19916;-87
2023/01/09 21:57:12;;;;;;;;;;;;;;;4.72;100.00;99186.75;5033676;28;20364;-87
2023/01/09 21:59:37;;;;;;;;;;;;;;;4.66;100.00;99204.41;5034993;28;19917;-87
2023/01/09 22:02:14;;;;;;;;;;;;;;;4.71;100.00;99218.28;5044599;28;19925;-86
2023/01/09 22:04:52;;;;;;;;;;;;;;;;;;;;;
2023/01/09 22:07:20;;;;;;;;;;;;;;;4.75;100.00;99256.66;5037780;28;20364;-86
2023/01/09 22:09:54;;;;;;;;;;;;;;;4.71;100.00;99260.28;5034577;28;19921;-86
2023/01/09 22:12:19;;;;;;;;;;;;;;;4.62;100.00;99276.28;5016866;28;19921;-86
2023/01/09 22:14:45;;;;;;;;;;;;;;;4.71;100.00;99266.38;5034563;28;19979;-87
2023/01/09 22:20:05;;;;;;;;;;;;;;;4.55;100.00;99272.97;5043019;28;19921;-87
2023/01/09 22:22:35;;;;;;;;;;;;;;;4.50;100.00;99278.31;5053146;28;20318;-89
2023/01/09 22:25:03;;;;;;;;;;;;;;;5.02;100.00;99270.78;5036366;28;20367;-87
2023/01/09 22:27:30;;;;;;;;;;;;;;;5.57;100.00;99262.19;5054360;28;19920;-87
2023/01/09 22:29:55;;;;;;;;;;;;;;;5.87;100.00;99278.78;5054056;28;19921;-87
2023/01/09 22:32:46;;;;;;;;;;;;;;;6.03;100.00;99275.66;5036279;28;19923;-87
2023/01/09 22:35:11;;;;;;;;;;;;;;;6.18;100.00;99285.69;5055094;28;19920;-89
2023/01/09 22:37:42;;;;;;;;;;;;;;;6.27;100.00;99303.81;5048701;28;20398;-88
2023/01/09 22:40:10;;;;;;;;;;;;;;;6.38;100.00;99313.13;5056063;28;19920;-88
2023/01/09 22:42:53;;;;;;;;;;;;;;;6.47;100.00;99321.56;5056162;28;19920;-89
2023/01/09 22:45:44;;;;;;;;;;;;;;;6.52;100.00;99318.78;5055431;28;19995;-87
2023/01/09 22:48:12;;;;;;;;;;;;;;;6.58;100.00;99329.09;5055632;28;19924;-85
2023/01/09 22:50:37;;;;;;;;;;;;;;;6.64;100.00;99331.53;5068127;28;20006;-89